MMML/MXL METAR and TAF weather

Enter ICAO airport designator
Station Type Date Time Source
MMML METAR 2019/08/24 07:46 UTC NOAA

MMML 240746Z 13012KT 10SM SKC 29/24 A2981


Station Type Date Time Source
MMML Decoded METAR 2019/08/24 07:46 UTC NOAA

Station name not available
Aug 24, 2019 - 03:46 AM EDT / 2019.08.24 0746 UTC
Wind: from the SE (130 degrees) at 14 MPH (12 KT):0
Visibility: 10 mile(s):0
Sky conditions: clear
Temperature: 84 F (29 C)
Dew Point: 75 F (24 C)
Relative Humidity: 74%
Pressure (altimeter): 29.81 in. Hg (1009 hPa)
ob: MMML 240746Z 13012KT 10SM SKC 29/24 A2981
cycle: 8

Station Type Date Time Source
MMML TAF 2019/08/24 06:59 UTC NOAA

TAF MMML 240452Z 2406/2506 12010KT P6SM SKC
FM241800 18012KT P6SM SKC
BECMG 2503/2505 20008KT

Example: see airport list